sensor_id;sensor_type;location;lat;lon;timestamp;pressure;altitude;pressure_sealevel;temperature;humidity
14269;BME280;7218;51.480;7.006;2023-04-10T00:00:41;101197.06;;;8.51;73.73
14269;BME280;7218;51.480;7.006;2023-04-10T00:03:10;101193.56;;;8.46;74.06
14269;BME280;7218;51.480;7.006;2023-04-10T00:05:36;101193.53;;;8.40;73.63
14269;BME280;7218;51.480;7.006;2023-04-10T00:08:03;101193.56;;;8.42;74.61
14269;BME280;7218;51.480;7.006;2023-04-10T00:10:30;101184.88;;;8.47;73.09
14269;BME280;7218;51.480;7.006;2023-04-10T00:12:58;101190.13;;;8.53;72.64
14269;BME280;7218;51.480;7.006;2023-04-10T00:15:27;101182.31;;;8.46;73.58
14269;BME280;7218;51.480;7.006;2023-04-10T00:17:55;101176.28;;;8.60;72.18
14269;BME280;7218;51.480;7.006;2023-04-10T00:20:22;101174.56;;;8.56;72.24
14269;BME280;7218;51.480;7.006;2023-04-10T00:22:50;101158.97;;;8.69;72.07
14269;BME280;7218;51.480;7.006;2023-04-10T00:25:16;101160.72;;;8.70;71.37
14269;BME280;7218;51.480;7.006;2023-04-10T00:27:43;101155.53;;;8.67;71.61
14269;BME280;7218;51.480;7.006;2023-04-10T00:30:11;101151.19;;;8.70;71.18
14269;BME280;7218;51.480;7.006;2023-04-10T00:32:37;101146.00;;;8.75;71.21
14269;BME280;7218;51.480;7.006;2023-04-10T00:35:06;101145.13;;;8.71;71.47
14269;BME280;7218;51.480;7.006;2023-04-10T00:37:32;101136.44;;;8.68;71.14
14269;BME280;7218;51.480;7.006;2023-04-10T00:39:59;101140.75;;;8.67;71.46
14269;BME280;7218;51.480;7.006;2023-04-10T00:42:25;101138.16;;;8.67;71.70
14269;BME280;7218;51.480;7.006;2023-04-10T00:44:52;101143.38;;;8.78;71.13
14269;BME280;7218;51.480;7.006;2023-04-10T00:47:20;101135.59;;;8.75;71.22
14269;BME280;7218;51.480;7.006;2023-04-10T00:49:47;101139.03;;;8.69;71.00
14269;BME280;7218;51.480;7.006;2023-04-10T00:52:13;101135.59;;;8.72;70.92
14269;BME280;7218;51.480;7.006;2023-04-10T00:54:40;101140.78;;;8.69;70.69
14269;BME280;7218;51.480;7.006;2023-04-10T00:57:06;101136.47;;;8.75;70.90
14269;BME280;7218;51.480;7.006;2023-04-10T00:59:33;101138.19;;;8.75;70.52
14269;BME280;7218;51.480;7.006;2023-04-10T01:02:00;101135.59;;;8.75;70.69
14269;BME280;7218;51.480;7.006;2023-04-10T01:04:28;101126.91;;;8.73;70.59
14269;BME280;7218;51.480;7.006;2023-04-10T01:06:58;101132.97;;;8.82;70.07
14269;BME280;7218;51.480;7.006;2023-04-10T01:09:40;101134.72;;;8.79;70.46
14269;BME280;7218;51.480;7.006;2023-04-10T01:12:24;101131.25;;;8.75;70.03
14269;BME280;7218;51.480;7.006;2023-04-10T01:14:57;101127.81;;;8.81;69.67
14269;BME280;7218;51.480;7.006;2023-04-10T01:17:30;101133.00;;;8.75;69.50
14269;BME280;7218;51.480;7.006;2023-04-10T01:20:09;101125.19;;;8.82;70.30
14269;BME280;7218;51.480;7.006;2023-04-10T01:22:48;101123.47;;;8.84;70.32
14269;BME280;7218;51.480;7.006;2023-04-10T01:25:33;101119.13;;;8.79;70.72
14269;BME280;7218;51.480;7.006;2023-04-10T01:28:19;101114.78;;;8.79;70.24
14269;BME280;7218;51.480;7.006;2023-04-10T01:30:50;101103.53;;;8.76;70.82
14269;BME280;7218;51.480;7.006;2023-04-10T01:33:20;101101.78;;;8.69;71.41
14269;BME280;7218;51.480;7.006;2023-04-10T01:35:49;101102.66;;;8.74;70.32
14269;BME280;7218;51.480;7.006;2023-04-10T01:38:19;101091.41;;;8.72;70.68
14269;BME280;7218;51.480;7.006;2023-04-10T01:40:49;101086.16;;;8.78;70.63
14269;BME280;7218;51.480;7.006;2023-04-10T01:43:18;101090.50;;;8.82;70.38
14269;BME280;7218;51.480;7.006;2023-04-10T01:45:48;101081.00;;;8.90;70.11
14269;BME280;7218;51.480;7.006;2023-04-10T01:48:16;101080.13;;;8.83;70.39
14269;BME280;7218;51.480;7.006;2023-04-10T01:50:45;101078.38;;;8.79;70.64
14269;BME280;7218;51.480;7.006;2023-04-10T01:53:12;101081.00;;;8.72;71.62
14269;BME280;7218;51.480;7.006;2023-04-10T01:55:39;101088.78;;;8.81;70.97
14269;BME280;7218;51.480;7.006;2023-04-10T01:58:06;101085.31;;;8.82;70.28
14269;BME280;7218;51.480;7.006;2023-04-10T02:00:36;101080.09;;;8.82;71.28
14269;BME280;7218;51.480;7.006;2023-04-10T02:03:04;101080.97;;;8.87;71.05
14269;BME280;7218;51.480;7.006;2023-04-10T02:05:40;101088.78;;;8.75;71.61
14269;BME280;7218;51.480;7.006;2023-04-10T02:08:14;101088.78;;;8.76;71.44
14269;BME280;7218;51.480;7.006;2023-04-10T02:10:47;101093.97;;;8.79;71.99
14269;BME280;7218;51.480;7.006;2023-04-10T02:13:20;101083.59;;;8.84;71.49
14269;BME280;7218;51.480;7.006;2023-04-10T02:15:48;101080.97;;;8.84;71.05
14269;BME280;7218;51.480;7.006;2023-04-10T02:18:17;101078.38;;;8.82;71.38
14269;BME280;7218;51.480;7.006;2023-04-10T02:20:45;101079.25;;;8.83;70.76
14269;BME280;7218;51.480;7.006;2023-04-10T02:23:14;101074.03;;;8.83;70.48
14269;BME280;7218;51.480;7.006;2023-04-10T02:25:41;101075.78;;;8.66;71.07
14269;BME280;7218;51.480;7.006;2023-04-10T02:28:07;101067.97;;;8.64;71.89
14269;BME280;7218;51.480;7.006;2023-04-10T02:30:34;101067.97;;;8.66;71.48
14269;BME280;7218;51.480;7.006;2023-04-10T02:33:00;101064.50;;;8.63;71.74
14269;BME280;7218;51.480;7.006;2023-04-10T02:35:28;101066.22;;;8.57;71.56
14269;BME280;7218;51.480;7.006;2023-04-10T02:37:55;101058.41;;;8.54;71.35
14269;BME280;7218;51.480;7.006;2023-04-10T02:40:21;101065.34;;;8.58;71.87
14269;BME280;7218;51.480;7.006;2023-04-10T02:42:48;101062.78;;;8.64;72.06
14269;BME280;7218;51.480;7.006;2023-04-10T02:45:15;101067.97;;;8.59;71.63
14269;BME280;7218;51.480;7.006;2023-04-10T02:47:41;101071.41;;;8.49;72.30
14269;BME280;7218;51.480;7.006;2023-04-10T02:50:09;101067.06;;;8.42;72.46
14269;BME280;7218;51.480;7.006;2023-04-10T02:52:37;101069.66;;;8.47;72.20
14269;BME280;7218;51.480;7.006;2023-04-10T02:55:04;101074.00;;;8.52;72.57
14269;BME280;7218;51.480;7.006;2023-04-10T02:57:31;101077.47;;;8.45;72.68
14269;BME280;7218;51.480;7.006;2023-04-10T02:59:57;101071.41;;;8.43;72.76
14269;BME280;7218;51.480;7.006;2023-04-10T03:02:24;101063.63;;;8.46;73.26
14269;BME280;7218;51.480;7.006;2023-04-10T03:04:50;101063.63;;;8.42;72.18
14269;BME280;7218;51.480;7.006;2023-04-10T03:07:17;101055.81;;;8.45;71.92
14269;BME280;7218;51.480;7.006;2023-04-10T03:09:45;101053.22;;;8.51;72.01
14269;BME280;7218;51.480;7.006;2023-04-10T03:12:11;101055.81;;;8.48;72.85
14269;BME280;7218;51.480;7.006;2023-04-10T03:14:38;101048.00;;;8.40;73.81
14269;BME280;7218;51.480;7.006;2023-04-10T03:17:04;101050.59;;;8.40;73.88
14269;BME280;7218;51.480;7.006;2023-04-10T03:19:31;101041.97;;;8.41;72.37
14269;BME280;7218;51.480;7.006;2023-04-10T03:21:58;101036.69;;;8.28;73.10
14269;BME280;7218;51.480;7.006;2023-04-10T03:24:24;101034.09;;;8.29;73.31
14269;BME280;7218;51.480;7.006;2023-04-10T03:26:52;101022.88;;;8.35;72.55
14269;BME280;7218;51.480;7.006;2023-04-10T03:29:19;101031.50;;;8.26;72.36
14269;BME280;7218;51.480;7.006;2023-04-10T03:31:45;101025.47;;;8.32;72.61
14269;BME280;7218;51.480;7.006;2023-04-10T03:34:12;101020.28;;;8.30;72.50
14269;BME280;7218;51.480;7.006;2023-04-10T03:36:38;101020.28;;;8.33;72.00
14269;BME280;7218;51.480;7.006;2023-04-10T03:39:05;101021.09;;;8.26;72.37
14269;BME280;7218;51.480;7.006;2023-04-10T03:41:31;101011.63;;;8.34;72.24
14269;BME280;7218;51.480;7.006;2023-04-10T03:43:59;101022.00;;;8.37;71.77
14269;BME280;7218;51.480;7.006;2023-04-10T03:46:28;101016.81;;;8.31;72.20
14269;BME280;7218;51.480;7.006;2023-04-10T03:48:54;101014.22;;;8.34;72.40
14269;BME280;7218;51.480;7.006;2023-04-10T03:51:20;101010.75;;;8.34;72.28
14269;BME280;7218;51.480;7.006;2023-04-10T03:53:48;101021.97;;;8.27;72.03
14269;BME280;7218;51.480;7.006;2023-04-10T03:56:15;101014.22;;;8.31;71.89
14269;BME280;7218;51.480;7.006;2023-04-10T03:58:42;101012.44;;;8.29;71.10
14269;BME280;7218;51.480;7.006;2023-04-10T04:01:10;101008.97;;;8.19;71.78
14269;BME280;7218;51.480;7.006;2023-04-10T04:03:36;101002.91;;;8.20;71.66
14269;BME280;7218;51.480;7.006;2023-04-10T04:06:03;101011.53;;;8.17;72.52
14269;BME280;7218;51.480;7.006;2023-04-10T04:08:29;101003.75;;;8.10;72.61
14269;BME280;7218;51.480;7.006;2023-04-10T04:10:56;101007.22;;;8.13;72.91
14269;BME280;7218;51.480;7.006;2023-04-10T04:13:23;101003.75;;;8.14;73.04
14269;BME280;7218;51.480;7.006;2023-04-10T04:15:49;100999.41;;;8.12;73.01
14269;BME280;7218;51.480;7.006;2023-04-10T04:18:17;101005.50;;;8.11;72.65
14269;BME280;7218;51.480;7.006;2023-04-10T04:20:43;100999.41;;;8.09;72.87
14269;BME280;7218;51.480;7.006;2023-04-10T04:23:10;101004.59;;;8.04;72.87
14269;BME280;7218;51.480;7.006;2023-04-10T04:25:36;100999.41;;;8.09;72.84
14269;BME280;7218;51.480;7.006;2023-04-10T04:28:03;100998.53;;;8.04;72.98
14269;BME280;7218;51.480;7.006;2023-04-10T04:30:30;100993.34;;;7.96;73.60
14269;BME280;7218;51.480;7.006;2023-04-10T04:32:56;100992.47;;;8.02;72.90
14269;BME280;7218;51.480;7.006;2023-04-10T04:35:24;100992.44;;;7.97;73.32
14269;BME280;7218;51.480;7.006;2023-04-10T04:37:50;100992.47;;;8.03;72.86
14269;BME280;7218;51.480;7.006;2023-04-10T04:40:17;100993.34;;;8.04;73.00
14269;BME280;7218;51.480;7.006;2023-04-10T04:42:43;100995.09;;;8.02;72.56
14269;BME280;7218;51.480;7.006;2023-04-10T04:45:10;100995.03;;;7.94;73.26
14269;BME280;7218;51.480;7.006;2023-04-10T04:47:36;100992.44;;;7.93;73.48
14269;BME280;7218;51.480;7.006;2023-04-10T04:50:04;100988.00;;;7.58;75.49
14269;BME280;7218;51.480;7.006;2023-04-10T04:52:32;100985.47;;;7.78;74.45
14269;BME280;7218;51.480;7.006;2023-04-10T04:54:59;100982.88;;;7.72;74.44
14269;BME280;7218;51.480;7.006;2023-04-10T04:57:25;100988.94;;;7.78;74.28
14269;BME280;7218;51.480;7.006;2023-04-10T04:59:52;100986.38;;;7.86;73.11
14269;BME280;7218;51.480;7.006;2023-04-10T05:02:18;100986.34;;;7.78;74.13
14269;BME280;7218;51.480;7.006;2023-04-10T05:04:46;100989.84;;;7.90;72.95
14269;BME280;7218;51.480;7.006;2023-04-10T05:07:13;100992.44;;;7.93;72.69
14269;BME280;7218;51.480;7.006;2023-04-10T05:09:41;100989.00;;;8.00;72.47
14269;BME280;7218;51.480;7.006;2023-04-10T05:12:07;100982.94;;;7.96;72.09
14269;BME280;7218;51.480;7.006;2023-04-10T05:14:34;100987.25;;;7.99;72.37
14269;BME280;7218;51.480;7.006;2023-04-10T05:17:01;100983.81;;;8.01;71.86
14269;BME280;7218;51.480;7.006;2023-04-10T05:19:27;100982.09;;;8.02;71.88
14269;BME280;7218;51.480;7.006;2023-04-10T05:21:54;100985.56;;;8.13;70.94
14269;BME280;7218;51.480;7.006;2023-04-10T05:24:20;100986.41;;;8.07;71.63
14269;BME280;7218;51.480;7.006;2023-04-10T05:26:48;100993.38;;;8.16;70.73
14269;BME280;7218;51.480;7.006;2023-04-10T05:29:15;100987.31;;;8.23;70.22
14269;BME280;7218;51.480;7.006;2023-04-10T05:31:41;100994.25;;;8.24;69.74
14269;BME280;7218;51.480;7.006;2023-04-10T05:34:07;100987.31;;;8.23;69.66
14269;BME280;7218;51.480;7.006;2023-04-10T05:36:34;100987.34;;;8.34;68.75
14269;BME280;7218;51.480;7.006;2023-04-10T05:39:00;100992.56;;;8.44;68.87
14269;BME280;7218;51.480;7.006;2023-04-10T05:41:27;100978.69;;;8.48;68.40
14269;BME280;7218;51.480;7.006;2023-04-10T05:43:55;100979.56;;;8.58;67.27
14269;BME280;7218;51.480;7.006;2023-04-10T05:46:21;100987.38;;;8.69;66.49
14269;BME280;7218;51.480;7.006;2023-04-10T05:48:48;100983.88;;;8.82;65.12
14269;BME280;7218;51.480;7.006;2023-04-10T05:51:14;100983.03;;;8.81;64.39
14269;BME280;7218;51.480;7.006;2023-04-10T05:53:40;100974.34;;;8.90;63.37
14269;BME280;7218;51.480;7.006;2023-04-10T05:56:07;100977.78;;;9.07;61.49
14269;BME280;7218;51.480;7.006;2023-04-10T05:58:34;100973.41;;;9.18;61.42
14269;BME280;7218;51.480;7.006;2023-04-10T06:01:01;100972.53;;;9.27;60.41
14269;BME280;7218;51.480;7.006;2023-04-10T06:03:28;100969.09;;;9.19;59.80
14269;BME280;7218;51.480;7.006;2023-04-10T06:05:55;100974.28;;;9.22;60.50
14269;BME280;7218;51.480;7.006;2023-04-10T06:08:22;100976.84;;;9.38;59.53
14269;BME280;7218;51.480;7.006;2023-04-10T06:10:49;100972.47;;;9.43;59.44
14269;BME280;7218;51.480;7.006;2023-04-10T06:13:15;100979.44;;;9.40;58.24
14269;BME280;7218;51.480;7.006;2023-04-10T06:15:41;100973.31;;;9.51;58.46
14269;BME280;7218;51.480;7.006;2023-04-10T06:18:09;100965.44;;;9.68;57.25
14269;BME280;7218;51.480;7.006;2023-04-10T06:20:36;100957.66;;;9.61;57.41
14269;BME280;7218;51.480;7.006;2023-04-10T06:23:02;100954.97;;;9.74;57.02
14269;BME280;7218;51.480;7.006;2023-04-10T06:25:29;100958.41;;;9.82;56.26
14269;BME280;7218;51.480;7.006;2023-04-10T06:27:55;100953.19;;;9.84;56.11
14269;BME280;7218;51.480;7.006;2023-04-10T06:30:22;100958.34;;;9.91;55.56
14269;BME280;7218;51.480;7.006;2023-04-10T06:32:48;100950.53;;;9.96;54.86
14269;BME280;7218;51.480;7.006;2023-04-10T06:35:16;100953.06;;;10.02;54.66
14269;BME280;7218;51.480;7.006;2023-04-10T06:37:43;100950.44;;;10.10;54.50
14269;BME280;7218;51.480;7.006;2023-04-10T06:40:12;100947.81;;;10.16;53.81
14269;BME280;7218;51.480;7.006;2023-04-10T06:42:38;100953.81;;;10.27;53.92
14269;BME280;7218;51.480;7.006;2023-04-10T06:45:07;100959.81;;;10.40;53.13
14269;BME280;7218;51.480;7.006;2023-04-10T06:47:33;100956.28;;;10.45;52.79
14269;BME280;7218;51.480;7.006;2023-04-10T06:50:00;100965.59;;;10.72;51.83
14269;BME280;7218;51.480;7.006;2023-04-10T06:52:27;100956.03;;;10.74;51.88
14269;BME280;7218;51.480;7.006;2023-04-10T06:54:54;100963.72;;;10.86;51.55
14269;BME280;7218;51.480;7.006;2023-04-10T06:57:21;100956.56;;;11.06;51.09
14269;BME280;7218;51.480;7.006;2023-04-10T06:59:47;100949.53;;;11.14;49.75
14269;BME280;7218;51.480;7.006;2023-04-10T07:02:14;100933.94;;;11.10;49.86
14269;BME280;7218;51.480;7.006;2023-04-10T07:04:41;100941.06;;;10.91;49.10
14269;BME280;7218;51.480;7.006;2023-04-10T07:07:07;100934.91;;;10.98;49.27
14269;BME280;7218;51.480;7.006;2023-04-10T07:09:38;100938.09;;;11.25;48.90
14269;BME280;7218;51.480;7.006;2023-04-10T07:12:04;100934.69;;;11.19;49.23
14269;BME280;7218;51.480;7.006;2023-04-10T07:14:32;100917.88;;;11.42;48.40
14269;BME280;7218;51.480;7.006;2023-04-10T07:17:00;100929.09;;;11.48;48.62
14269;BME280;7218;51.480;7.006;2023-04-10T07:19:26;100914.44;;;11.37;48.44
14269;BME280;7218;51.480;7.006;2023-04-10T07:21:53;100915.38;;;11.33;48.56
14269;BME280;7218;51.480;7.006;2023-04-10T07:24:19;100913.31;;;11.56;48.08
14269;BME280;7218;51.480;7.006;2023-04-10T07:26:47;100910.69;;;11.59;47.38
14269;BME280;7218;51.480;7.006;2023-04-10T07:29:14;100904.41;;;11.72;47.48
14269;BME280;7218;51.480;7.006;2023-04-10T07:31:40;100900.97;;;11.70;46.99
14269;BME280;7218;51.480;7.006;2023-04-10T07:34:07;100899.03;;;11.84;46.65
14269;BME280;7218;51.480;7.006;2023-04-10T07:36:33;100896.94;;;12.07;45.88
14269;BME280;7218;51.480;7.006;2023-04-10T07:39:00;100894.16;;;12.18;46.18
14269;BME280;7218;51.480;7.006;2023-04-10T07:41:27;100895.03;;;12.19;46.27
14269;BME280;7218;51.480;7.006;2023-04-10T07:43:54;100893.44;;;12.10;45.73
14269;BME280;7218;51.480;7.006;2023-04-10T07:46:21;100895.13;;;12.13;46.23
14269;BME280;7218;51.480;7.006;2023-04-10T07:48:47;100881.19;;;12.11;46.15
14269;BME280;7218;51.480;7.006;2023-04-10T07:51:14;100877.69;;;12.12;46.30
14269;BME280;7218;51.480;7.006;2023-04-10T07:53:41;100875.91;;;12.15;46.01
14269;BME280;7218;51.480;7.006;2023-04-10T07:56:14;100867.06;;;12.24;45.68
14269;BME280;7218;51.480;7.006;2023-04-10T07:58:40;100865.63;;;12.04;46.44
14269;BME280;7218;51.480;7.006;2023-04-10T08:01:08;100861.91;;;12.19;46.20
14269;BME280;7218;51.480;7.006;2023-04-10T08:03:38;100858.41;;;12.19;45.62
14269;BME280;7218;51.480;7.006;2023-04-10T08:06:06;100859.13;;;12.27;44.84
14269;BME280;7218;51.480;7.006;2023-04-10T08:08:34;100855.44;;;12.40;44.55
14269;BME280;7218;51.480;7.006;2023-04-10T08:11:01;100854.13;;;12.64;44.14
14269;BME280;7218;51.480;7.006;2023-04-10T08:13:27;100845.72;;;12.92;43.47
14269;BME280;7218;51.480;7.006;2023-04-10T08:15:54;100842.44;;;12.81;43.04
14269;BME280;7218;51.480;7.006;2023-04-10T08:18:25;100839.19;;;13.15;42.94
14269;BME280;7218;51.480;7.006;2023-04-10T08:20:51;100839.59;;;13.35;42.58
14269;BME280;7218;51.480;7.006;2023-04-10T08:23:18;100835.09;;;13.42;42.91
14269;BME280;7218;51.480;7.006;2023-04-10T08:25:44;100829.97;;;13.37;42.78
14269;BME280;7218;51.480;7.006;2023-04-10T08:28:11;100827.13;;;13.46;42.08
14269;BME280;7218;51.480;7.006;2023-04-10T08:30:37;100831.13;;;13.24;42.08
14269;BME280;7218;51.480;7.006;2023-04-10T08:33:04;100824.53;;;13.05;41.83
14269;BME280;7218;51.480;7.006;2023-04-10T08:35:32;100814.84;;;13.10;41.93
14269;BME280;7218;51.480;7.006;2023-04-10T08:37:58;100827.06;;;13.09;41.36
14269;BME280;7218;51.480;7.006;2023-04-10T08:40:25;100817.75;;;13.36;41.09
14269;BME280;7218;51.480;7.006;2023-04-10T08:42:51;100815.50;;;13.59;40.90
14269;BME280;7218;51.480;7.006;2023-04-10T08:45:18;100803.91;;;13.69;41.05
14269;BME280;7218;51.480;7.006;2023-04-10T08:47:47;100796.38;;;13.91;41.10
14269;BME280;7218;51.480;7.006;2023-04-10T08:50:16;100795.47;;;13.92;40.41
14269;BME280;7218;51.480;7.006;2023-04-10T08:52:45;100791.78;;;14.33;40.08
14269;BME280;7218;51.480;7.006;2023-04-10T08:55:14;100791.09;;;14.27;39.83
14269;BME280;7218;51.480;7.006;2023-04-10T08:57:41;100793.31;;;14.09;40.34
14269;BME280;7218;51.480;7.006;2023-04-10T09:00:09;100782.41;;;14.25;39.34
14269;BME280;7218;51.480;7.006;2023-04-10T09:02:37;100778.63;;;14.36;39.75
14269;BME280;7218;51.480;7.006;2023-04-10T09:05:05;100774.88;;;14.45;39.81
14269;BME280;7218;51.480;7.006;2023-04-10T09:07:35;100769.06;;;14.32;39.43
14269;BME280;7218;51.480;7.006;2023-04-10T09:10:04;100766.25;;;14.72;38.91
14269;BME280;7218;51.480;7.006;2023-04-10T09:12:42;100767.41;;;14.62;38.83
14269;BME280;7218;51.480;7.006;2023-04-10T09:15:08;100765.94;;;14.83;38.58
14269;BME280;7218;51.480;7.006;2023-04-10T09:17:35;100761.88;;;14.71;39.05
14269;BME280;7218;51.480;7.006;2023-04-10T09:20:02;100766.56;;;14.60;38.85
14269;BME280;7218;51.480;7.006;2023-04-10T09:22:45;100766.22;;;14.74;39.71
14269;BME280;7218;51.480;7.006;2023-04-10T09:25:28;100774.59;;;14.55;38.83
14269;BME280;7218;51.480;7.006;2023-04-10T09:27:59;100775.84;;;14.08;39.34
14269;BME280;7218;51.480;7.006;2023-04-10T09:30:32;100780.13;;;14.11;39.53
14269;BME280;7218;51.480;7.006;2023-04-10T09:32:58;100785.75;;;14.63;39.43
14269;BME280;7218;51.480;7.006;2023-04-10T09:35:34;100776.47;;;14.81;38.55
14269;BME280;7218;51.480;7.006;2023-04-10T09:38:01;100781.91;;;15.04;38.07
14269;BME280;7218;51.480;7.006;2023-04-10T09:40:39;100778.59;;;15.57;37.62
14269;BME280;7218;51.480;7.006;2023-04-10T09:43:16;100771.75;;;15.49;37.17
14269;BME280;7218;51.480;7.006;2023-04-10T09:45:47;100769.75;;;15.30;37.58
14269;BME280;7218;51.480;7.006;2023-04-10T09:48:13;100762.84;;;15.27;37.35
14269;BME280;7218;51.480;7.006;2023-04-10T09:50:40;100747.78;;;15.60;37.50
14269;BME280;7218;51.480;7.006;2023-04-10T09:53:07;100731.03;;;15.89;36.65
14269;BME280;7218;51.480;7.006;2023-04-10T09:55:34;100753.63;;;15.14;37.79
14269;BME280;7218;51.480;7.006;2023-04-10T09:58:02;100754.25;;;15.22;37.59
14269;BME280;7218;51.480;7.006;2023-04-10T10:00:29;100750.19;;;15.12;37.59
14269;BME280;7218;51.480;7.006;2023-04-10T10:02:56;100752.81;;;15.12;37.86
14269;BME280;7218;51.480;7.006;2023-04-10T10:05:25;100752.38;;;14.98;37.83
14269;BME280;7218;51.480;7.006;2023-04-10T10:07:55;100739.72;;;14.81;37.38
14269;BME280;7218;51.480;7.006;2023-04-10T10:10:22;100739.16;;;15.29;37.33
14269;BME280;7218;51.480;7.006;2023-04-10T10:12:50;100738.16;;;16.12;36.04
14269;BME280;7218;51.480;7.006;2023-04-10T10:15:25;100750.06;;;15.97;36.21
14269;BME280;7218;51.480;7.006;2023-04-10T10:18:03;100715.72;;;16.02;35.84
14269;BME280;7218;51.480;7.006;2023-04-10T10:20:33;100707.44;;;15.87;35.77
14269;BME280;7218;51.480;7.006;2023-04-10T10:23:01;100717.31;;;16.06;36.21
14269;BME280;7218;51.480;7.006;2023-04-10T10:25:29;100707.38;;;15.89;36.26
14269;BME280;7218;51.480;7.006;2023-04-10T10:27:59;100710.63;;;15.71;36.44
14269;BME280;7218;51.480;7.006;2023-04-10T10:30:31;100708.47;;;16.08;35.83
14269;BME280;7218;51.480;7.006;2023-04-10T10:32:58;100705.69;;;16.13;35.67
14269;BME280;7218;51.480;7.006;2023-04-10T10:35:25;100693.59;;;16.32;35.68
14269;BME280;7218;51.480;7.006;2023-04-10T10:37:52;100687.31;;;16.59;34.33
14269;BME280;7218;51.480;7.006;2023-04-10T10:40:21;100709.25;;;16.60;34.29
14269;BME280;7218;51.480;7.006;2023-04-10T10:42:55;100673.97;;;16.41;34.81
14269;BME280;7218;51.480;7.006;2023-04-10T10:45:32;100680.88;;;16.90;33.95
14269;BME280;7218;51.480;7.006;2023-04-10T10:47:59;100669.31;;;17.37;33.93
14269;BME280;7218;51.480;7.006;2023-04-10T10:50:49;100665.22;;;17.08;33.27
14269;BME280;7218;51.480;7.006;2023-04-10T10:53:30;100661.38;;;17.17;33.21
14269;BME280;7218;51.480;7.006;2023-04-10T10:55:57;100648.00;;;16.78;33.02
14269;BME280;7218;51.480;7.006;2023-04-10T10:58:44;100637.41;;;17.23;32.76
14269;BME280;7218;51.480;7.006;2023-04-10T11:01:13;100626.97;;;17.20;32.92
14269;BME280;7218;51.480;7.006;2023-04-10T11:03:40;100637.69;;;16.49;33.62
14269;BME280;7218;51.480;7.006;2023-04-10T11:06:10;100628.53;;;16.59;33.45
14269;BME280;7218;51.480;7.006;2023-04-10T11:08:41;100619.88;;;16.55;32.74
14269;BME280;7218;51.480;7.006;2023-04-10T11:11:13;100645.00;;;16.17;33.05
14269;BME280;7218;51.480;7.006;2023-04-10T11:14:10;100620.53;;;16.39;33.40
14269;BME280;7218;51.480;7.006;2023-04-10T11:16:45;100608.72;;;16.72;33.12
14269;BME280;7218;51.480;7.006;2023-04-10T11:19:12;100592.06;;;16.93;32.01
14269;BME280;7218;51.480;7.006;2023-04-10T11:22:14;100605.69;;;16.83;31.75
14269;BME280;7218;51.480;7.006;2023-04-10T11:24:51;100598.25;;;16.47;32.88
14269;BME280;7218;51.480;7.006;2023-04-10T11:27:37;100581.53;;;16.93;32.76
14269;BME280;7218;51.480;7.006;2023-04-10T11:30:24;100579.28;;;17.26;32.06
14269;BME280;7218;51.480;7.006;2023-04-10T11:32:53;100580.19;;;17.25;31.54
14269;BME280;7218;51.480;7.006;2023-04-10T11:35:20;100577.09;;;17.36;31.10
14269;BME280;7218;51.480;7.006;2023-04-10T11:37:47;100578.69;;;17.40;30.86
14269;BME280;7218;51.480;7.006;2023-04-10T11:40:13;100580.34;;;17.22;30.63
14269;BME280;7218;51.480;7.006;2023-04-10T11:42:40;100565.47;;;18.00;30.42
14269;BME280;7218;51.480;7.006;2023-04-10T11:45:22;100567.41;;;18.53;29.68
14269;BME280;7218;51.480;7.006;2023-04-10T11:47:51;100549.75;;;18.36;30.28
14269;BME280;7218;51.480;7.006;2023-04-10T11:50:18;100548.09;;;18.53;30.53
14269;BME280;7218;51.480;7.006;2023-04-10T11:52:45;100547.75;;;18.41;30.35
14269;BME280;7218;51.480;7.006;2023-04-10T11:55:11;100545.88;;;17.87;30.62
14269;BME280;7218;51.480;7.006;2023-04-10T11:57:38;100543.81;;;18.13;30.13
14269;BME280;7218;51.480;7.006;2023-04-10T12:00:06;100552.22;;;18.21;29.55
14269;BME280;7218;51.480;7.006;2023-04-10T12:02:33;100538.00;;;17.86;30.09
14269;BME280;7218;51.480;7.006;2023-04-10T12:05:00;100534.72;;;17.99;30.00
14269;BME280;7218;51.480;7.006;2023-04-10T12:07:27;100533.31;;;17.92;29.83
14269;BME280;7218;51.480;7.006;2023-04-10T12:09:55;100530.44;;;18.53;29.55
14269;BME280;7218;51.480;7.006;2023-04-10T12:12:33;100521.56;;;18.56;29.70
14269;BME280;7218;51.480;7.006;2023-04-10T12:15:00;100504.03;;;18.72;29.84
14269;BME280;7218;51.480;7.006;2023-04-10T12:17:26;100508.31;;;19.26;28.78
14269;BME280;7218;51.480;7.006;2023-04-10T12:19:53;100500.25;;;18.77;29.52
14269;BME280;7218;51.480;7.006;2023-04-10T12:22:21;100507.75;;;18.49;29.37
14269;BME280;7218;51.480;7.006;2023-04-10T12:24:49;100505.34;;;18.26;29.78
14269;BME280;7218;51.480;7.006;2023-04-10T12:27:16;100507.75;;;18.49;29.70
14269;BME280;7218;51.480;7.006;2023-04-10T12:29:54;100498.00;;;18.32;29.35
14269;BME280;7218;51.480;7.006;2023-04-10T12:32:21;100500.50;;;18.54;29.38
14269;BME280;7218;51.480;7.006;2023-04-10T12:34:51;100491.22;;;18.27;29.39
14269;BME280;7218;51.480;7.006;2023-04-10T12:37:18;100503.38;;;18.12;30.03
14269;BME280;7218;51.480;7.006;2023-04-10T12:39:46;100481.69;;;17.87;30.03
14269;BME280;7218;51.480;7.006;2023-04-10T12:42:13;100483.41;;;18.06;29.37
14269;BME280;7218;51.480;7.006;2023-04-10T12:44:51;100476.34;;;18.62;29.45
14269;BME280;7218;51.480;7.006;2023-04-10T12:47:18;100463.63;;;18.87;29.67
14269;BME280;7218;51.480;7.006;2023-04-10T12:50:03;100472.78;;;19.82;27.80
14269;BME280;7218;51.480;7.006;2023-04-10T12:52:30;100454.66;;;21.12;26.37
14269;BME280;7218;51.480;7.006;2023-04-10T12:55:09;100454.53;;;22.00;25.73
14269;BME280;7218;51.480;7.006;2023-04-10T12:57:36;100442.97;;;21.44;26.43
14269;BME280;7218;51.480;7.006;2023-04-10T13:00:04;100451.78;;;20.10;27.22
14269;BME280;7218;51.480;7.006;2023-04-10T13:02:34;100435.78;;;19.64;28.03
14269;BME280;7218;51.480;7.006;2023-04-10T13:05:00;100443.16;;;19.25;28.59
14269;BME280;7218;51.480;7.006;2023-04-10T13:07:27;100425.13;;;18.47;29.17
14269;BME280;7218;51.480;7.006;2023-04-10T13:09:53;100416.34;;;18.11;29.55
14269;BME280;7218;51.480;7.006;2023-04-10T13:12:21;100426.50;;;17.82;29.71